sensor_id;sensor_type;location;lat;lon;timestamp;pressure;altitude;pressure_sealevel;temperature;humidity
16821;BME280;8527;49.740;6.604;2023-05-23T00:00:35;99798.59;;;16.81;90.71
16821;BME280;8527;49.740;6.604;2023-05-23T00:05:39;99796.97;;;16.73;91.01
16821;BME280;8527;49.740;6.604;2023-05-23T00:10:38;99801.28;;;16.81;89.71
16821;BME280;8527;49.740;6.604;2023-05-23T00:15:38;99798.00;;;16.65;91.21
16821;BME280;8527;49.740;6.604;2023-05-23T00:20:40;99805.63;;;16.62;91.09
16821;BME280;8527;49.740;6.604;2023-05-23T00:25:39;99799.88;;;16.51;91.87
16821;BME280;8527;49.740;6.604;2023-05-23T00:30:46;99796.16;;;16.52;92.59
16821;BME280;8527;49.740;6.604;2023-05-23T00:35:50;99798.44;;;16.55;90.71
16821;BME280;8527;49.740;6.604;2023-05-23T00:40:52;99805.22;;;16.58;91.44
16821;BME280;8527;49.740;6.604;2023-05-23T00:45:50;99801.09;;;16.49;91.08
16821;BME280;8527;49.740;6.604;2023-05-23T00:50:52;99792.22;;;16.55;90.99
16821;BME280;8527;49.740;6.604;2023-05-23T00:55:51;99792.25;;;16.48;91.73
16821;BME280;8527;49.740;6.604;2023-05-23T01:00:49;99789.56;;;16.41;91.60
16821;BME280;8527;49.740;6.604;2023-05-23T01:05:52;99792.66;;;16.31;91.23
16821;BME280;8527;49.740;6.604;2023-05-23T01:10:51;99795.13;;;16.20;92.46
16821;BME280;8527;49.740;6.604;2023-05-23T01:15:57;99805.84;;;16.13;92.70
16821;BME280;8527;49.740;6.604;2023-05-23T01:21:06;99795.53;;;16.16;92.55
16821;BME280;8527;49.740;6.604;2023-05-23T01:26:17;99801.09;;;16.15;91.36
16821;BME280;8527;49.740;6.604;2023-05-23T01:31:28;99808.72;;;16.18;92.29
16821;BME280;8527;49.740;6.604;2023-05-23T01:36:32;99809.94;;;16.15;91.69
16821;BME280;8527;49.740;6.604;2023-05-23T01:41:31;99809.75;;;16.17;90.33
16821;BME280;8527;49.740;6.604;2023-05-23T01:46:33;99812.41;;;16.03;90.92
16821;BME280;8527;49.740;6.604;2023-05-23T01:51:33;99813.19;;;15.97;91.88
16821;BME280;8527;49.740;6.604;2023-05-23T01:56:32;99823.88;;;15.91;90.75
16821;BME280;8527;49.740;6.604;2023-05-23T02:01:33;99837.19;;;15.77;90.20
16821;BME280;8527;49.740;6.604;2023-05-23T02:06:34;99830.19;;;15.76;91.01
16821;BME280;8527;49.740;6.604;2023-05-23T02:11:36;99823.19;;;15.68;91.10
16821;BME280;8527;49.740;6.604;2023-05-23T02:16:40;99834.44;;;15.57;91.03
16821;BME280;8527;49.740;6.604;2023-05-23T02:21:41;99834.66;;;15.55;91.63
16821;BME280;8527;49.740;6.604;2023-05-23T02:26:39;99848.84;;;15.56;91.89
16821;BME280;8527;49.740;6.604;2023-05-23T02:31:43;99842.69;;;15.55;91.42
16821;BME280;8527;49.740;6.604;2023-05-23T02:36:42;99846.72;;;15.44;90.48
16821;BME280;8527;49.740;6.604;2023-05-23T02:41:41;99855.34;;;15.40;91.82
16821;BME280;8527;49.740;6.604;2023-05-23T02:46:45;99853.72;;;15.45;91.70
16821;BME280;8527;49.740;6.604;2023-05-23T02:51:43;99868.22;;;15.29;91.17
16821;BME280;8527;49.740;6.604;2023-05-23T02:56:50;99867.25;;;15.30;91.16
16821;BME280;8527;49.740;6.604;2023-05-23T03:01:52;99857.13;;;15.26;92.32
16821;BME280;8527;49.740;6.604;2023-05-23T03:07:00;99862.84;;;15.23;92.41
16821;BME280;8527;49.740;6.604;2023-05-23T03:12:00;99866.72;;;15.13;92.81
16821;BME280;8527;49.740;6.604;2023-05-23T03:17:01;99869.38;;;15.13;92.57
16821;BME280;8527;49.740;6.604;2023-05-23T03:22:03;99854.25;;;14.92;90.78
16821;BME280;8527;49.740;6.604;2023-05-23T03:27:04;99855.41;;;14.83;91.90
16821;BME280;8527;49.740;6.604;2023-05-23T03:32:06;99855.91;;;14.71;91.31
16821;BME280;8527;49.740;6.604;2023-05-23T03:37:05;99866.13;;;14.68;92.37
16821;BME280;8527;49.740;6.604;2023-05-23T03:42:13;99869.91;;;14.73;91.94
16821;BME280;8527;49.740;6.604;2023-05-23T03:47:14;99873.31;;;14.89;93.53
16821;BME280;8527;49.740;6.604;2023-05-23T03:52:16;99878.03;;;14.87;91.67
16821;BME280;8527;49.740;6.604;2023-05-23T03:57:18;99879.94;;;14.93;94.03
16821;BME280;8527;49.740;6.604;2023-05-23T04:02:26;99883.81;;;14.90;92.88
16821;BME280;8527;49.740;6.604;2023-05-23T04:07:30;99894.56;;;14.97;93.92
16821;BME280;8527;49.740;6.604;2023-05-23T04:12:32;99891.78;;;15.12;95.15
16821;BME280;8527;49.740;6.604;2023-05-23T04:17:33;99892.94;;;15.03;94.01
16821;BME280;8527;49.740;6.604;2023-05-23T04:22:33;99892.16;;;15.09;94.01
16821;BME280;8527;49.740;6.604;2023-05-23T04:27:31;99897.53;;;15.16;93.62
16821;BME280;8527;49.740;6.604;2023-05-23T04:32:29;99901.53;;;15.27;95.14
16821;BME280;8527;49.740;6.604;2023-05-23T04:37:33;99908.59;;;15.35;95.58
16821;BME280;8527;49.740;6.604;2023-05-23T04:42:32;99903.06;;;15.36;95.55
16821;BME280;8527;49.740;6.604;2023-05-23T04:47:30;99910.72;;;15.46;95.38
16821;BME280;8527;49.740;6.604;2023-05-23T04:52:29;99912.22;;;15.55;92.08
16821;BME280;8527;49.740;6.604;2023-05-23T04:57:33;99919.00;;;15.58;94.31
16821;BME280;8527;49.740;6.604;2023-05-23T05:02:32;99920.53;;;15.74;93.26
16821;BME280;8527;49.740;6.604;2023-05-23T05:07:31;99928.16;;;15.84;91.99
16821;BME280;8527;49.740;6.604;2023-05-23T05:12:36;99930.91;;;15.91;92.00
16821;BME280;8527;49.740;6.604;2023-05-23T05:17:35;99936.63;;;15.87;85.25
16821;BME280;8527;49.740;6.604;2023-05-23T05:22:37;99927.47;;;16.03;86.26
16821;BME280;8527;49.740;6.604;2023-05-23T05:27:41;99946.41;;;16.09;84.45
16821;BME280;8527;49.740;6.604;2023-05-23T05:32:42;99944.59;;;16.09;82.38
16821;BME280;8527;49.740;6.604;2023-05-23T05:37:44;99956.75;;;16.12;82.12
16821;BME280;8527;49.740;6.604;2023-05-23T05:42:48;99967.03;;;16.08;81.44
16821;BME280;8527;49.740;6.604;2023-05-23T05:47:49;99967.00;;;16.01;81.77
16821;BME280;8527;49.740;6.604;2023-05-23T05:52:47;99971.31;;;16.02;80.71
16821;BME280;8527;49.740;6.604;2023-05-23T05:57:51;99977.41;;;15.89;80.36
16821;BME280;8527;49.740;6.604;2023-05-23T06:02:51;99982.31;;;15.86;80.53
16821;BME280;8527;49.740;6.604;2023-05-23T06:07:52;99977.72;;;16.08;80.25
16821;BME280;8527;49.740;6.604;2023-05-23T06:12:57;99985.81;;;16.22;81.74
16821;BME280;8527;49.740;6.604;2023-05-23T06:17:56;99981.47;;;16.14;79.00
16821;BME280;8527;49.740;6.604;2023-05-23T06:22:54;99987.28;;;16.31;79.24
16821;BME280;8527;49.740;6.604;2023-05-23T06:27:58;99997.31;;;16.22;79.94
16821;BME280;8527;49.740;6.604;2023-05-23T06:32:58;100004.34;;;16.30;80.59
16821;BME280;8527;49.740;6.604;2023-05-23T06:37:56;100010.78;;;16.42;79.42
16821;BME280;8527;49.740;6.604;2023-05-23T06:42:57;100001.03;;;16.21;79.25
16821;BME280;8527;49.740;6.604;2023-05-23T06:47:57;100013.25;;;16.37;79.52
16821;BME280;8527;49.740;6.604;2023-05-23T06:52:56;100010.97;;;16.34;78.86
16821;BME280;8527;49.740;6.604;2023-05-23T06:57:57;100015.94;;;16.44;78.63
16821;BME280;8527;49.740;6.604;2023-05-23T07:02:58;100018.84;;;16.49;78.29
16821;BME280;8527;49.740;6.604;2023-05-23T07:07:57;100023.97;;;16.37;78.38
16821;BME280;8527;49.740;6.604;2023-05-23T07:12:58;100019.19;;;16.26;78.55
16821;BME280;8527;49.740;6.604;2023-05-23T07:18:02;100019.69;;;16.50;77.42
16821;BME280;8527;49.740;6.604;2023-05-23T07:23:03;100017.84;;;16.50;75.88
16821;BME280;8527;49.740;6.604;2023-05-23T07:28:04;100002.72;;;17.05;74.52
16821;BME280;8527;49.740;6.604;2023-05-23T07:33:03;100001.88;;;17.58;71.96
16821;BME280;8527;49.740;6.604;2023-05-23T07:38:02;100001.94;;;18.24;68.86
16821;BME280;8527;49.740;6.604;2023-05-23T07:43:03;100001.63;;;19.17;67.32
16821;BME280;8527;49.740;6.604;2023-05-23T07:48:02;99994.53;;;18.58;67.56
16821;BME280;8527;49.740;6.604;2023-05-23T07:53:08;99987.53;;;19.15;67.80
16821;BME280;8527;49.740;6.604;2023-05-23T07:58:09;99988.75;;;18.87;66.79
16821;BME280;8527;49.740;6.604;2023-05-23T08:03:08;99995.34;;;18.13;67.99
16821;BME280;8527;49.740;6.604;2023-05-23T08:08:06;100002.28;;;17.62;69.43
16821;BME280;8527;49.740;6.604;2023-05-23T08:13:05;99997.47;;;18.04;68.86
16821;BME280;8527;49.740;6.604;2023-05-23T08:18:06;99999.50;;;18.02;68.88
16821;BME280;8527;49.740;6.604;2023-05-23T08:23:11;100008.41;;;19.19;66.95
16821;BME280;8527;49.740;6.604;2023-05-23T08:28:15;100013.88;;;19.57;65.70
16821;BME280;8527;49.740;6.604;2023-05-23T08:33:18;100006.16;;;19.16;66.48
16821;BME280;8527;49.740;6.604;2023-05-23T08:38:17;100008.34;;;19.01;66.85
16821;BME280;8527;49.740;6.604;2023-05-23T08:43:16;100014.25;;;18.84;66.65
16821;BME280;8527;49.740;6.604;2023-05-23T08:48:18;100009.88;;;18.51;66.45
16821;BME280;8527;49.740;6.604;2023-05-23T08:53:23;100018.78;;;18.83;67.40
16821;BME280;8527;49.740;6.604;2023-05-23T08:58:24;100034.34;;;18.75;66.40
16821;BME280;8527;49.740;6.604;2023-05-23T09:03:27;100026.78;;;17.99;67.43
16821;BME280;8527;49.740;6.604;2023-05-23T09:08:27;100045.59;;;18.06;67.86
16821;BME280;8527;49.740;6.604;2023-05-23T09:13:25;100050.56;;;18.54;66.84
16821;BME280;8527;49.740;6.604;2023-05-23T09:18:35;100053.75;;;18.77;66.24
16821;BME280;8527;49.740;6.604;2023-05-23T09:23:35;100056.88;;;18.21;67.77
16821;BME280;8527;49.740;6.604;2023-05-23T09:28:35;100063.34;;;17.86;68.55
16821;BME280;8527;49.740;6.604;2023-05-23T09:33:39;100069.78;;;17.65;69.41
16821;BME280;8527;49.740;6.604;2023-05-23T09:38:43;100074.94;;;17.40;69.81
16821;BME280;8527;49.740;6.604;2023-05-23T09:43:49;100075.72;;;18.01;69.54
16821;BME280;8527;49.740;6.604;2023-05-23T09:48:53;100079.97;;;18.36;67.29
16821;BME280;8527;49.740;6.604;2023-05-23T09:53:55;100074.91;;;18.14;66.51
16821;BME280;8527;49.740;6.604;2023-05-23T09:58:53;100068.09;;;18.57;66.29
16821;BME280;8527;49.740;6.604;2023-05-23T10:03:56;100076.78;;;17.86;66.21
16821;BME280;8527;49.740;6.604;2023-05-23T10:08:58;100080.44;;;18.19;65.57
16821;BME280;8527;49.740;6.604;2023-05-23T10:14:04;100086.06;;;18.04;66.47
16821;BME280;8527;49.740;6.604;2023-05-23T10:19:16;100082.22;;;18.39;64.66
16821;BME280;8527;49.740;6.604;2023-05-23T10:24:18;100084.59;;;18.22;65.52
16821;BME280;8527;49.740;6.604;2023-05-23T10:29:18;100083.06;;;18.92;66.98
16821;BME280;8527;49.740;6.604;2023-05-23T10:34:26;100080.72;;;19.09;64.63
16821;BME280;8527;49.740;6.604;2023-05-23T10:39:39;100088.72;;;18.18;65.56
16821;BME280;8527;49.740;6.604;2023-05-23T10:44:45;100094.41;;;18.48;66.00
16821;BME280;8527;49.740;6.604;2023-05-23T10:49:50;100085.03;;;18.64;66.13
16821;BME280;8527;49.740;6.604;2023-05-23T10:54:52;100089.13;;;18.14;66.23
16821;BME280;8527;49.740;6.604;2023-05-23T10:59:53;100087.06;;;18.17;66.22
16821;BME280;8527;49.740;6.604;2023-05-23T11:05:22;100088.31;;;18.07;66.03
16821;BME280;8527;49.740;6.604;2023-05-23T11:10:25;100087.47;;;18.00;65.83
16821;BME280;8527;49.740;6.604;2023-05-23T11:15:26;100089.75;;;18.17;66.51
16821;BME280;8527;49.740;6.604;2023-05-23T11:20:29;100089.94;;;18.28;65.51
16821;BME280;8527;49.740;6.604;2023-05-23T11:25:42;100080.56;;;18.90;66.01
16821;BME280;8527;49.740;6.604;2023-05-23T11:30:46;100087.88;;;18.76;63.84
16821;BME280;8527;49.740;6.604;2023-05-23T11:35:48;100087.03;;;19.21;63.12
16821;BME280;8527;49.740;6.604;2023-05-23T11:40:48;100094.81;;;19.04;63.84
16821;BME280;8527;49.740;6.604;2023-05-23T11:45:49;100102.38;;;19.14;64.61
16821;BME280;8527;49.740;6.604;2023-05-23T11:50:51;100088.16;;;19.39;64.29
16821;BME280;8527;49.740;6.604;2023-05-23T11:55:51;100092.03;;;19.43;63.90
16821;BME280;8527;49.740;6.604;2023-05-23T12:00:50;100100.66;;;19.52;62.48
16821;BME280;8527;49.740;6.604;2023-05-23T12:05:51;100103.81;;;19.74;62.30
16821;BME280;8527;49.740;6.604;2023-05-23T12:10:55;100104.53;;;19.63;62.48
16821;BME280;8527;49.740;6.604;2023-05-23T12:16:01;100093.41;;;19.52;61.94
16821;BME280;8527;49.740;6.604;2023-05-23T12:21:06;100091.88;;;19.38;63.14
16821;BME280;8527;49.740;6.604;2023-05-23T12:26:05;100089.25;;;19.82;62.01
16821;BME280;8527;49.740;6.604;2023-05-23T12:31:09;100093.13;;;19.35;61.99
16821;BME280;8527;49.740;6.604;2023-05-23T12:36:13;100095.16;;;20.16;61.36
16821;BME280;8527;49.740;6.604;2023-05-23T12:41:16;100100.16;;;20.50;60.63
16821;BME280;8527;49.740;6.604;2023-05-23T12:46:21;100099.84;;;20.40;59.85
16821;BME280;8527;49.740;6.604;2023-05-23T12:51:27;100101.69;;;19.51;62.14
16821;BME280;8527;49.740;6.604;2023-05-23T12:56:26;100108.53;;;20.04;62.42
16821;BME280;8527;49.740;6.604;2023-05-23T13:01:25;100109.41;;;19.73;62.87
16821;BME280;8527;49.740;6.604;2023-05-23T13:06:29;100110.94;;;19.62;63.02
16821;BME280;8527;49.740;6.604;2023-05-23T13:11:31;100109.16;;;19.23;64.73
16821;BME280;8527;49.740;6.604;2023-05-23T13:16:29;100117.03;;;19.50;63.93
16821;BME280;8527;49.740;6.604;2023-05-23T13:21:33;100117.19;;;19.56;63.65
16821;BME280;8527;49.740;6.604;2023-05-23T13:26:32;100109.59;;;19.71;63.97
16821;BME280;8527;49.740;6.604;2023-05-23T13:31:30;100103.59;;;19.18;63.61
16821;BME280;8527;49.740;6.604;2023-05-23T13:36:29;100105.59;;;19.30;64.55
16821;BME280;8527;49.740;6.604;2023-05-23T13:41:33;100103.47;;;19.06;64.54
16821;BME280;8527;49.740;6.604;2023-05-23T13:46:31;100116.88;;;18.61;66.03
16821;BME280;8527;49.740;6.604;2023-05-23T13:51:32;100116.78;;;18.35;65.99
16821;BME280;8527;49.740;6.604;2023-05-23T13:56:37;100113.44;;;18.47;65.24
16821;BME280;8527;49.740;6.604;2023-05-23T14:01:36;100103.88;;;19.10;65.12
16821;BME280;8527;49.740;6.604;2023-05-23T14:06:35;100109.31;;;19.29;63.38
16821;BME280;8527;49.740;6.604;2023-05-23T14:11:47;100112.09;;;19.47;62.04
16821;BME280;8527;49.740;6.604;2023-05-23T14:16:49;100121.97;;;18.82;61.65
16821;BME280;8527;49.740;6.604;2023-05-23T14:21:49;100108.81;;;18.61;62.52
16821;BME280;8527;49.740;6.604;2023-05-23T14:26:50;100109.06;;;18.59;61.83
16821;BME280;8527;49.740;6.604;2023-05-23T14:31:49;100106.59;;;19.03;62.62
16821;BME280;8527;49.740;6.604;2023-05-23T14:36:59;100108.16;;;18.72;62.61
16821;BME280;8527;49.740;6.604;2023-05-23T14:42:00;100105.44;;;17.93;64.70
16821;BME280;8527;49.740;6.604;2023-05-23T14:46:59;100111.44;;;17.95;64.76
16821;BME280;8527;49.740;6.604;2023-05-23T14:52:06;100106.47;;;18.19;64.51
16821;BME280;8527;49.740;6.604;2023-05-23T14:57:09;100107.09;;;18.27;63.28
16821;BME280;8527;49.740;6.604;2023-05-23T15:02:08;100103.44;;;18.61;62.92
16821;BME280;8527;49.740;6.604;2023-05-23T15:07:09;100112.69;;;18.06;63.52
16821;BME280;8527;49.740;6.604;2023-05-23T15:12:15;100107.25;;;18.39;63.47
16821;BME280;8527;49.740;6.604;2023-05-23T15:17:13;100105.47;;;18.72;63.27
16821;BME280;8527;49.740;6.604;2023-05-23T15:22:14;100092.56;;;18.49;62.07
16821;BME280;8527;49.740;6.604;2023-05-23T15:27:15;100094.63;;;18.47;60.53
16821;BME280;8527;49.740;6.604;2023-05-23T15:32:23;100094.94;;;18.64;58.90
16821;BME280;8527;49.740;6.604;2023-05-23T15:37:22;100097.91;;;18.94;59.64
16821;BME280;8527;49.740;6.604;2023-05-23T15:42:26;100109.34;;;18.90;58.62
16821;BME280;8527;49.740;6.604;2023-05-23T15:47:26;100104.53;;;18.98;58.57
16821;BME280;8527;49.740;6.604;2023-05-23T15:52:24;100107.09;;;18.27;57.18
16821;BME280;8527;49.740;6.604;2023-05-23T15:57:26;100107.72;;;18.23;57.21
16821;BME280;8527;49.740;6.604;2023-05-23T16:02:24;100107.41;;;18.58;58.27
16821;BME280;8527;49.740;6.604;2023-05-23T16:07:25;100109.16;;;17.98;58.68
16821;BME280;8527;49.740;6.604;2023-05-23T16:12:26;100112.25;;;18.16;59.26
16821;BME280;8527;49.740;6.604;2023-05-23T16:17:25;100110.41;;;17.76;58.81
16821;BME280;8527;49.740;6.604;2023-05-23T16:22:26;100102.16;;;18.04;58.92
16821;BME280;8527;49.740;6.604;2023-05-23T16:27:27;100109.56;;;18.22;57.42
16821;BME280;8527;49.740;6.604;2023-05-23T16:32:26;100107.09;;;18.21;58.45
16821;BME280;8527;49.740;6.604;2023-05-23T16:37:25;100111.59;;;18.34;58.33
16821;BME280;8527;49.740;6.604;2023-05-23T16:42:24;100106.69;;;18.24;58.52
16821;BME280;8527;49.740;6.604;2023-05-23T16:47:24;100096.78;;;17.91;58.44
16821;BME280;8527;49.740;6.604;2023-05-23T16:52:25;100100.72;;;18.15;57.29
16821;BME280;8527;49.740;6.604;2023-05-23T16:57:23;100106.72;;;18.04;57.71
16821;BME280;8527;49.740;6.604;2023-05-23T17:02:24;100104.66;;;17.58;57.54
16821;BME280;8527;49.740;6.604;2023-05-23T17:07:23;100106.91;;;17.48;57.55
16821;BME280;8527;49.740;6.604;2023-05-23T17:12:21;100109.19;;;17.71;56.84
16821;BME280;8527;49.740;6.604;2023-05-23T17:17:26;100104.66;;;17.72;56.73
16821;BME280;8527;49.740;6.604;2023-05-23T17:22:25;100101.72;;;17.87;56.01
16821;BME280;8527;49.740;6.604;2023-05-23T17:27:32;100098.00;;;17.88;55.62
16821;BME280;8527;49.740;6.604;2023-05-23T17:32:33;100097.81;;;17.96;55.79
16821;BME280;8527;49.740;6.604;2023-05-23T17:37:34;100096.38;;;18.07;56.70
16821;BME280;8527;49.740;6.604;2023-05-23T17:42:36;100098.25;;;17.66;55.92
16821;BME280;8527;49.740;6.604;2023-05-23T17:47:37;100098.44;;;17.85;56.61
16821;BME280;8527;49.740;6.604;2023-05-23T17:52:36;100102.16;;;17.91;56.00
16821;BME280;8527;49.740;6.604;2023-05-23T17:57:37;100114.53;;;17.31;57.66
16821;BME280;8527;49.740;6.604;2023-05-23T18:02:42;100109.25;;;16.89;58.53
16821;BME280;8527;49.740;6.604;2023-05-23T18:07:40;100127.94;;;17.24;58.70
16821;BME280;8527;49.740;6.604;2023-05-23T18:12:42;100134.59;;;16.93;58.97
16821;BME280;8527;49.740;6.604;2023-05-23T18:17:45;100121.53;;;16.70;59.08
16821;BME280;8527;49.740;6.604;2023-05-23T18:22:49;100129.59;;;16.70;59.23
16821;BME280;8527;49.740;6.604;2023-05-23T18:27:51;100132.28;;;16.77;59.88
16821;BME280;8527;49.740;6.604;2023-05-23T18:32:52;100123.00;;;16.72;59.28
16821;BME280;8527;49.740;6.604;2023-05-23T18:37:53;100127.53;;;16.72;59.01
16821;BME280;8527;49.740;6.604;2023-05-23T18:42:51;100134.13;;;16.69;59.31
16821;BME280;8527;49.740;6.604;2023-05-23T18:47:56;100134.94;;;16.70;59.82
16821;BME280;8527;49.740;6.604;2023-05-23T18:52:55;100132.84;;;16.65;60.39
16821;BME280;8527;49.740;6.604;2023-05-23T18:57:53;100146.66;;;16.62;60.39
16821;BME280;8527;49.740;6.604;2023-05-23T19:02:58;100144.50;;;16.44;60.46
16821;BME280;8527;49.740;6.604;2023-05-23T19:07:59;100151.25;;;16.33;59.82
16821;BME280;8527;49.740;6.604;2023-05-23T19:12:59;100153.56;;;16.43;60.79
16821;BME280;8527;49.740;6.604;2023-05-23T19:18:03;100167.69;;;16.30;61.19
16821;BME280;8527;49.740;6.604;2023-05-23T19:23:02;100164.72;;;16.18;61.01
16821;BME280;8527;49.740;6.604;2023-05-23T19:28:01;100174.94;;;16.08;60.83
16821;BME280;8527;49.740;6.604;2023-05-23T19:33:03;100183.81;;;15.86;61.83
16821;BME280;8527;49.740;6.604;2023-05-23T19:38:02;100173.69;;;15.82;61.81
16821;BME280;8527;49.740;6.604;2023-05-23T19:43:00;100183.63;;;15.66;60.87
16821;BME280;8527;49.740;6.604;2023-05-23T19:48:04;100191.53;;;15.53;62.87
16821;BME280;8527;49.740;6.604;2023-05-23T19:53:02;100203.41;;;15.50;62.58
16821;BME280;8527;49.740;6.604;2023-05-23T19:58:04;100198.09;;;15.35;62.22
16821;BME280;8527;49.740;6.604;2023-05-23T20:03:05;100206.56;;;15.17;62.76
16821;BME280;8527;49.740;6.604;2023-05-23T20:08:09;100208.97;;;15.12;63.15
16821;BME280;8527;49.740;6.604;2023-05-23T20:13:11;100215.63;;;14.86;63.26
16821;BME280;8527;49.740;6.604;2023-05-23T20:18:12;100223.81;;;14.99;62.97
16821;BME280;8527;49.740;6.604;2023-05-23T20:23:13;100224.75;;;14.76;63.15
16821;BME280;8527;49.740;6.604;2023-05-23T20:28:21;100228.91;;;14.94;63.56
16821;BME280;8527;49.740;6.604;2023-05-23T20:33:25;100228.03;;;14.63;62.53
16821;BME280;8527;49.740;6.604;2023-05-23T20:38:24;100228.19;;;14.47;62.60
16821;BME280;8527;49.740;6.604;2023-05-23T20:43:23;100234.72;;;14.59;62.42
16821;BME280;8527;49.740;6.604;2023-05-23T20:48:27;100241.53;;;14.47;63.08
16821;BME280;8527;49.740;6.604;2023-05-23T20:53:25;100239.13;;;14.37;62.35
16821;BME280;8527;49.740;6.604;2023-05-23T20:58:24;100247.28;;;14.20;63.55
16821;BME280;8527;49.740;6.604;2023-05-23T21:03:22;100252.25;;;14.24;62.77
16821;BME280;8527;49.740;6.604;2023-05-23T21:08:23;100263.69;;;14.17;63.46
16821;BME280;8527;49.740;6.604;2023-05-23T21:13:24;100258.03;;;14.12;62.87
16821;BME280;8527;49.740;6.604;2023-05-23T21:18:22;100265.81;;;14.22;62.74
16821;BME280;8527;49.740;6.604;2023-05-23T21:23:23;100271.38;;;14.12;63.23
16821;BME280;8527;49.740;6.604;2023-05-23T21:28:22;100286.84;;;13.93;63.86
16821;BME280;8527;49.740;6.604;2023-05-23T21:33:20;100281.88;;;13.90;63.84
16821;BME280;8527;49.740;6.604;2023-05-23T21:38:18;100274.03;;;13.66;64.30
16821;BME280;8527;49.740;6.604;2023-05-23T21:43:23;100283.56;;;13.60;64.08
16821;BME280;8527;49.740;6.604;2023-05-23T21:48:21;100289.56;;;13.62;63.87
16821;BME280;8527;49.740;6.604;2023-05-23T21:53:20;100298.44;;;13.46;64.50
16821;BME280;8527;49.740;6.604;2023-05-23T21:58:24;100302.56;;;13.57;64.09
16821;BME280;8527;49.740;6.604;2023-05-23T22:03:26;100309.44;;;13.43;64.52
16821;BME280;8527;49.740;6.604;2023-05-23T22:08:25;100302.44;;;13.50;64.46
16821;BME280;8527;49.740;6.604;2023-05-23T22:13:30;100315.09;;;13.48;65.12
16821;BME280;8527;49.740;6.604;2023-05-23T22:18:28;100308.06;;;13.07;65.14
16821;BME280;8527;49.740;6.604;2023-05-23T22:23:30;100297.44;;;12.99;65.89
16821;BME280;8527;49.740;6.604;2023-05-23T22:28:34;100297.59;;;12.97;65.08
16821;BME280;8527;49.740;6.604;2023-05-23T22:33:32;100300.97;;;12.91;66.08
16821;BME280;8527;49.740;6.604;2023-05-23T22:38:31;100299.94;;;12.92;65.87
16821;BME280;8527;49.740;6.604;2023-05-23T22:43:32;100305.44;;;12.82;66.92
16821;BME280;8527;49.740;6.604;2023-05-23T22:48:31;100312.56;;;12.98;66.87
16821;BME280;8527;49.740;6.604;2023-05-23T22:53:30;100309.94;;;12.90;67.30
16821;BME280;8527;49.740;6.604;2023-05-23T22:58:28;100305.28;;;12.75;67.01
16821;BME280;8527;49.740;6.604;2023-05-23T23:03:29;100311.50;;;12.59;67.81
16821;BME280;8527;49.740;6.604;2023-05-23T23:08:31;100304.16;;;12.53;68.02
16821;BME280;8527;49.740;6.604;2023-05-23T23:13:31;100304.34;;;12.51;68.13
16821;BME280;8527;49.740;6.604;2023-05-23T23:18:33;100305.16;;;12.27;68.63
16821;BME280;8527;49.740;6.604;2023-05-23T23:23:31;100300.53;;;12.21;68.61
16821;BME280;8527;49.740;6.604;2023-05-23T23:28:30;100300.34;;;12.22;68.66
16821;BME280;8527;49.740;6.604;2023-05-23T23:33:32;100294.69;;;12.34;69.23
16821;BME280;8527;49.740;6.604;2023-05-23T23:38:30;100297.19;;;12.10;69.75
16821;BME280;8527;49.740;6.604;2023-05-23T23:43:29;100303.03;;;12.14;70.81
16821;BME280;8527;49.740;6.604;2023-05-23T23:48:32;100299.50;;;12.05;70.94
16821;BME280;8527;49.740;6.604;2023-05-23T23:53:31;100295.63;;;11.91;71.52
16821;BME280;8527;49.740;6.604;2023-05-23T23:58:31;100303.56;;;11.66;71.60
